Time;durP1;ratioP1;P1;durP2;ratioP2;P2;SDS_P1;SDS_P2;PMS_P1;PMS_P2;Temp;Humidity;BMP_temperature;BMP_pressure;BME280_temperature;BME280_humidity;BME280_pressure;Samples;Min_cycle;Max_cycle;Signal;HPM_P1;HPM_P2
2021/07/05 00:01:24;;;;;;;1.33;0.40;;;;;;;;;;5004231;28;20034;-85
2021/07/05 00:03:50;;;;;;;0.30;0.30;;;;;;;;;;5002765;28;20042;-84
2021/07/05 00:06:16;;;;;;;1.77;0.38;;;;;;;;;;5016479;28;20054;-84
2021/07/05 00:08:42;;;;;;;0.52;0.40;;;;;;;;;;5019605;28;20035;-84
2021/07/05 00:11:08;;;;;;;0.50;0.50;;;;;;;;;;5030623;28;20034;-85
2021/07/05 00:13:34;;;;;;;0.73;0.40;;;;;;;;;;5016457;28;20081;-84
2021/07/05 00:16:01;;;;;;;0.30;0.30;;;;;;;;;;5017499;28;20034;-84
2021/07/05 00:18:27;;;;;;;0.30;0.30;;;;;;;;;;5031471;28;20030;-85
2021/07/05 00:20:53;;;;;;;1.60;0.30;;;;;;;;;;5014754;28;20031;-84
2021/07/05 00:23:20;;;;;;;0.88;0.60;;;;;;;;;;5006016;28;20041;-84
2021/07/05 00:25:46;;;;;;;0.25;0.25;;;;;;;;;;5016833;28;20018;-85
2021/07/05 00:28:12;;;;;;;0.50;0.50;;;;;;;;;;5015419;28;20472;-84
2021/07/05 00:30:39;;;;;;;0.40;0.40;;;;;;;;;;5016234;28;20467;-86
2021/07/05 00:33:05;;;;;;;0.43;0.40;;;;;;;;;;5024231;28;20054;-84
2021/07/05 00:35:31;;;;;;;0.40;0.40;;;;;;;;;;5019646;28;20467;-85
2021/07/05 00:37:58;;;;;;;0.60;0.32;;;;;;;;;;5018459;28;20049;-85
2021/07/05 00:40:27;;;;;;;0.35;0.35;;;;;;;;;;5021546;28;20056;-84
2021/07/05 00:42:55;;;;;;;0.90;0.40;;;;;;;;;;5012381;28;20182;-85
2021/07/05 00:45:22;;;;;;;0.85;0.47;;;;;;;;;;5020895;28;20483;-85
2021/07/05 00:47:48;;;;;;;0.50;0.50;;;;;;;;;;5017030;28;20080;-84
2021/07/05 00:50:16;;;;;;;0.40;0.40;;;;;;;;;;5015587;28;20076;-85
2021/07/05 00:52:43;;;;;;;2.38;0.50;;;;;;;;;;4999786;28;20034;-84
2021/07/05 00:55:10;;;;;;;0.52;0.30;;;;;;;;;;5000926;28;20030;-85
2021/07/05 00:57:36;;;;;;;0.50;0.50;;;;;;;;;;5002327;28;20014;-84
2021/07/05 01:00:04;;;;;;;0.40;0.40;;;;;;;;;;5001416;28;20066;-84
2021/07/05 01:02:30;;;;;;;1.13;0.50;;;;;;;;;;5005990;28;20026;-84
2021/07/05 01:04:57;;;;;;;0.85;0.60;;;;;;;;;;5004902;28;20348;-85
2021/07/05 01:07:23;;;;;;;0.30;0.30;;;;;;;;;;5024574;28;20057;-83
2021/07/05 01:09:49;;;;;;;1.85;0.57;;;;;;;;;;5015083;28;20065;-85
2021/07/05 01:12:15;;;;;;;0.70;0.70;;;;;;;;;;5001022;28;20070;-85
2021/07/05 01:14:41;;;;;;;0.40;0.40;;;;;;;;;;4998719;28;20041;-85
2021/07/05 01:17:13;;;;;;;0.60;0.60;;;;;;;;;;4998036;28;20030;-85
2021/07/05 01:19:39;;;;;;;0.75;0.50;;;;;;;;;;5000590;28;20065;-85
2021/07/05 01:22:06;;;;;;;0.50;0.50;;;;;;;;;;5001377;28;20129;-85
2021/07/05 01:24:32;;;;;;;0.45;0.45;;;;;;;;;;4999357;28;20033;-85
2021/07/05 01:26:58;;;;;;;0.68;0.52;;;;;;;;;;4998971;28;20475;-85
2021/07/05 01:29:24;;;;;;;0.60;0.60;;;;;;;;;;4998565;28;20484;-85
2021/07/05 01:31:50;;;;;;;0.45;0.43;;;;;;;;;;5009478;28;20104;-85
2021/07/05 01:34:16;;;;;;;0.50;0.50;;;;;;;;;;5019648;28;20038;-84
2021/07/05 01:36:45;;;;;;;0.30;0.30;;;;;;;;;;5035201;28;20030;-84
2021/07/05 01:39:11;;;;;;;0.82;0.60;;;;;;;;;;5036730;28;20017;-82
2021/07/05 01:41:37;;;;;;;0.70;0.70;;;;;;;;;;5035069;28;20042;-86
2021/07/05 01:44:04;;;;;;;0.95;0.85;;;;;;;;;;5012461;28;20027;-83
2021/07/05 01:46:30;;;;;;;0.50;0.50;;;;;;;;;;4999870;28;20033;-84
2021/07/05 01:48:56;;;;;;;1.13;0.50;;;;;;;;;;5015835;28;20074;-85
2021/07/05 01:51:22;;;;;;;1.75;0.68;;;;;;;;;;5014246;28;20037;-84
2021/07/05 01:53:48;;;;;;;0.65;0.65;;;;;;;;;;5025877;28;20038;-82
2021/07/05 01:56:15;;;;;;;0.57;0.57;;;;;;;;;;5030434;28;20057;-83
2021/07/05 01:58:41;;;;;;;0.55;0.50;;;;;;;;;;5019107;28;20100;-84
2021/07/05 02:01:07;;;;;;;0.55;0.55;;;;;;;;;;5015104;28;20034;-85
2021/07/05 02:03:33;;;;;;;0.52;0.52;;;;;;;;;;5018328;28;20023;-85
2021/07/05 02:05:59;;;;;;;3.05;0.80;;;;;;;;;;4993634;28;20027;-84
2021/07/05 02:08:25;;;;;;;0.43;0.43;;;;;;;;;;4984223;28;20035;-85
2021/07/05 02:10:52;;;;;;;0.63;0.55;;;;;;;;;;5009002;28;20022;-85
2021/07/05 02:13:20;;;;;;;0.70;0.70;;;;;;;;;;5020932;28;20034;-84
2021/07/05 02:15:47;;;;;;;0.40;0.40;;;;;;;;;;5022057;28;20053;-87
2021/07/05 02:18:14;;;;;;;0.70;0.70;;;;;;;;;;5006499;28;20041;-87
2021/07/05 02:20:40;;;;;;;0.73;0.65;;;;;;;;;;5023411;28;20018;-86
2021/07/05 02:23:07;;;;;;;1.35;0.60;;;;;;;;;;5029880;28;20127;-86
2021/07/05 02:25:34;;;;;;;0.75;0.50;;;;;;;;;;5022190;28;20043;-86
2021/07/05 02:28:01;;;;;;;0.55;0.40;;;;;;;;;;5019495;28;20133;-86
2021/07/05 02:30:29;;;;;;;0.57;0.55;;;;;;;;;;5019566;28;20033;-85
2021/07/05 02:32:56;;;;;;;0.65;0.50;;;;;;;;;;5027554;28;20019;-84
2021/07/05 02:35:23;;;;;;;0.50;0.50;;;;;;;;;;5005646;28;20030;-84
2021/07/05 02:37:50;;;;;;;0.55;0.55;;;;;;;;;;5018992;28;20036;-84
2021/07/05 02:40:18;;;;;;;0.60;0.60;;;;;;;;;;5004496;28;20033;-84
2021/07/05 02:42:44;;;;;;;1.38;0.85;;;;;;;;;;5004875;28;20035;-84
2021/07/05 02:45:16;;;;;;;0.88;0.88;;;;;;;;;;5004654;28;20038;-86
2021/07/05 02:47:42;;;;;;;0.50;0.50;;;;;;;;;;5004147;28;20105;-84
2021/07/05 02:50:08;;;;;;;0.60;0.60;;;;;;;;;;5003453;28;20070;-82
2021/07/05 02:52:34;;;;;;;2.28;0.60;;;;;;;;;;5005450;28;20112;-85
2021/07/05 02:55:01;;;;;;;0.50;0.50;;;;;;;;;;5006892;28;20057;-84
2021/07/05 02:57:30;;;;;;;1.52;0.70;;;;;;;;;;5006965;28;20026;-84
2021/07/05 03:00:01;;;;;;;2.53;0.63;;;;;;;;;;5010133;28;20049;-85
2021/07/05 03:02:27;;;;;;;1.95;0.75;;;;;;;;;;5011966;28;20038;-83
2021/07/05 03:04:53;;;;;;;1.33;0.45;;;;;;;;;;5007574;28;20034;-85
2021/07/05 03:07:19;;;;;;;0.52;0.50;;;;;;;;;;5008484;28;20030;-84
2021/07/05 03:09:45;;;;;;;0.80;0.80;;;;;;;;;;5008121;28;20049;-84
2021/07/05 03:12:11;;;;;;;0.70;0.70;;;;;;;;;;5007320;28;20026;-84
2021/07/05 03:14:37;;;;;;;0.50;0.50;;;;;;;;;;5024595;28;20050;-84
2021/07/05 03:17:04;;;;;;;2.90;0.82;;;;;;;;;;5008762;28;20069;-84
2021/07/05 03:19:30;;;;;;;0.70;0.70;;;;;;;;;;5008854;28;20027;-83
2021/07/05 03:21:56;;;;;;;0.70;0.70;;;;;;;;;;5023773;28;20125;-83
2021/07/05 03:24:22;;;;;;;0.95;0.68;;;;;;;;;;5009094;28;20041;-85
2021/07/05 03:26:48;;;;;;;0.73;0.73;;;;;;;;;;5028587;28;20102;-86
2021/07/05 03:29:15;;;;;;;3.60;0.80;;;;;;;;;;5030850;28;20246;-85
2021/07/05 03:31:41;;;;;;;1.55;0.50;;;;;;;;;;5003099;28;20030;-84
2021/07/05 03:34:07;;;;;;;0.50;0.50;;;;;;;;;;5010495;28;20038;-86
2021/07/05 03:36:33;;;;;;;2.33;0.65;;;;;;;;;;5008167;28;20046;-86
2021/07/05 03:38:59;;;;;;;0.73;0.70;;;;;;;;;;5014640;28;20165;-87
2021/07/05 03:41:25;;;;;;;0.80;0.80;;;;;;;;;;4990946;28;20046;-86
2021/07/05 03:43:51;;;;;;;1.10;1.02;;;;;;;;;;5003284;28;20019;-86
2021/07/05 03:46:17;;;;;;;1.05;0.68;;;;;;;;;;5003579;28;20031;-87
2021/07/05 03:48:43;;;;;;;0.63;0.63;;;;;;;;;;5004413;28;20457;-85
2021/07/05 03:51:09;;;;;;;0.55;0.55;;;;;;;;;;5003778;28;20038;-85
2021/07/05 03:53:35;;;;;;;0.80;0.80;;;;;;;;;;5004568;28;20237;-84
2021/07/05 03:56:03;;;;;;;0.98;0.90;;;;;;;;;;5010725;28;20022;-85
2021/07/05 03:58:29;;;;;;;0.98;0.82;;;;;;;;;;5005868;28;20038;-84
2021/07/05 04:00:55;;;;;;;2.35;0.95;;;;;;;;;;4987131;28;20102;-84
2021/07/05 04:03:21;;;;;;;1.00;0.60;;;;;;;;;;5009952;28;20033;-85
2021/07/05 04:05:48;;;;;;;0.75;0.60;;;;;;;;;;5012599;28;20165;-85
2021/07/05 04:08:14;;;;;;;0.63;0.63;;;;;;;;;;5011874;28;20082;-85
2021/07/05 04:10:40;;;;;;;0.57;0.57;;;;;;;;;;5017125;28;20022;-86
2021/07/05 04:13:07;;;;;;;4.00;1.13;;;;;;;;;;5027683;28;20031;-83
2021/07/05 04:15:34;;;;;;;0.80;0.80;;;;;;;;;;5009779;28;20033;-83
2021/07/05 04:18:00;;;;;;;0.80;0.80;;;;;;;;;;5023335;28;20030;-84
2021/07/05 04:20:26;;;;;;;0.60;0.60;;;;;;;;;;5023387;28;20085;-83
2021/07/05 04:22:53;;;;;;;0.88;0.88;;;;;;;;;;5023119;28;20129;-83
2021/07/05 04:25:19;;;;;;;0.77;0.73;;;;;;;;;;5024076;28;20464;-83
2021/07/05 04:27:46;;;;;;;0.80;0.70;;;;;;;;;;5007350;28;20050;-84
2021/07/05 04:30:13;;;;;;;1.27;0.90;;;;;;;;;;5017637;28;20026;-86
2021/07/05 04:32:39;;;;;;;1.50;1.10;;;;;;;;;;5034471;28;20015;-84
2021/07/05 04:35:07;;;;;;;1.00;1.00;;;;;;;;;;5034103;28;20014;-86
2021/07/05 04:37:33;;;;;;;0.70;0.70;;;;;;;;;;5018337;28;20026;-84
2021/07/05 04:40:00;;;;;;;0.60;0.60;;;;;;;;;;5016919;28;20018;-84
2021/07/05 04:42:26;;;;;;;2.65;0.93;;;;;;;;;;5007950;28;20061;-84
2021/07/05 04:44:52;;;;;;;1.23;1.02;;;;;;;;;;5005084;28;20030;-84
2021/07/05 04:47:18;;;;;;;0.50;0.50;;;;;;;;;;5005132;28;20130;-83
2021/07/05 04:49:45;;;;;;;0.60;0.50;;;;;;;;;;5006594;28;20040;-83
2021/07/05 04:52:11;;;;;;;1.45;1.35;;;;;;;;;;5025470;28;20033;-84
2021/07/05 04:54:37;;;;;;;1.17;0.80;;;;;;;;;;5023100;28;20399;-84
2021/07/05 04:57:03;;;;;;;1.00;0.77;;;;;;;;;;5009082;28;20053;-82
2021/07/05 04:59:30;;;;;;;1.05;0.75;;;;;;;;;;5011959;28;20036;-83
2021/07/05 05:01:56;;;;;;;1.33;0.70;;;;;;;;;;5023343;28;20026;-83
2021/07/05 05:04:22;;;;;;;1.50;1.00;;;;;;;;;;5034176;28;20045;-83
2021/07/05 05:06:48;;;;;;;1.00;0.90;;;;;;;;;;5015341;28;20037;-83
2021/07/05 05:09:15;;;;;;;1.15;0.90;;;;;;;;;;5021888;28;20090;-83
2021/07/05 05:11:41;;;;;;;0.60;0.60;;;;;;;;;;5031658;28;20019;-84
2021/07/05 05:14:07;;;;;;;0.70;0.70;;;;;;;;;;5013657;28;20075;-82
2021/07/05 05:16:36;;;;;;;2.53;0.70;;;;;;;;;;5018332;28;20114;-83
2021/07/05 05:19:09;;;;;;;0.73;0.60;;;;;;;;;;5002212;28;20037;-84
2021/07/05 05:21:35;;;;;;;0.70;0.70;;;;;;;;;;5022367;28;20037;-84
2021/07/05 05:24:01;;;;;;;0.93;0.85;;;;;;;;;;5018150;28;20133;-85
2021/07/05 05:26:27;;;;;;;0.60;0.60;;;;;;;;;;5003553;28;20022;-84
2021/07/05 05:28:53;;;;;;;0.50;0.50;;;;;;;;;;5017415;28;20398;-84
2021/07/05 05:31:19;;;;;;;0.70;0.70;;;;;;;;;;5004861;28;20030;-82
2021/07/05 05:33:46;;;;;;;0.90;0.50;;;;;;;;;;5017888;28;20372;-82
2021/07/05 05:36:12;;;;;;;0.80;0.80;;;;;;;;;;5003674;28;20026;-82
2021/07/05 05:38:45;;;;;;;0.60;0.60;;;;;;;;;;5016769;28;20030;-82
2021/07/05 05:41:11;;;;;;;0.70;0.70;;;;;;;;;;5016646;28;20026;-83
2021/07/05 05:43:37;;;;;;;1.23;1.00;;;;;;;;;;5017936;28;20038;-83
2021/07/05 05:46:03;;;;;;;0.50;0.50;;;;;;;;;;5016259;28;20455;-82
2021/07/05 05:48:30;;;;;;;0.50;0.50;;;;;;;;;;5016236;28;20036;-84
2021/07/05 05:50:56;;;;;;;0.77;0.77;;;;;;;;;;5018103;28;20388;-83
2021/07/05 05:53:22;;;;;;;0.85;0.70;;;;;;;;;;5002256;28;20029;-82
2021/07/05 05:55:48;;;;;;;0.50;0.50;;;;;;;;;;5003020;28;20101;-83
2021/07/05 05:58:15;;;;;;;0.55;0.55;;;;;;;;;;5018068;28;20023;-83
2021/07/05 06:00:41;;;;;;;2.35;0.68;;;;;;;;;;5003238;28;20028;-84
2021/07/05 06:03:07;;;;;;;1.33;0.63;;;;;;;;;;5017730;28;20026;-84
2021/07/05 06:05:33;;;;;;;0.70;0.70;;;;;;;;;;5017580;28;20026;-83
2021/07/05 06:07:59;;;;;;;0.73;0.73;;;;;;;;;;5017674;28;20053;-84
2021/07/05 06:10:26;;;;;;;1.75;0.68;;;;;;;;;;5004813;28;20037;-82
2021/07/05 06:12:53;;;;;;;0.93;0.85;;;;;;;;;;5023184;28;20034;-83
2021/07/05 06:15:20;;;;;;;0.60;0.60;;;;;;;;;;5007162;28;20024;-83
2021/07/05 06:17:46;;;;;;;0.57;0.57;;;;;;;;;;5007184;28;20041;-84
2021/07/05 06:20:13;;;;;;;0.47;0.47;;;;;;;;;;5025542;28;20027;-84
2021/07/05 06:22:47;;;;;;;0.50;0.50;;;;;;;;;;5023623;28;20107;-84
2021/07/05 06:25:13;;;;;;;0.50;0.50;;;;;;;;;;5003436;28;20519;-84
2021/07/05 06:27:39;;;;;;;0.75;0.73;;;;;;;;;;5018480;28;20042;-84
2021/07/05 06:30:05;;;;;;;0.75;0.75;;;;;;;;;;5018760;28;20081;-83
2021/07/05 06:32:31;;;;;;;0.90;0.90;;;;;;;;;;5004123;28;20086;-84
2021/07/05 06:34:58;;;;;;;4.07;1.10;;;;;;;;;;5004764;28;20034;-84
2021/07/05 06:37:24;;;;;;;2.85;1.00;;;;;;;;;;4986593;28;20027;-84
2021/07/05 06:39:50;;;;;;;1.48;1.10;;;;;;;;;;4997878;28;20033;-84
2021/07/05 06:42:16;;;;;;;2.83;0.95;;;;;;;;;;5006174;28;20026;-84
2021/07/05 06:44:42;;;;;;;3.90;0.98;;;;;;;;;;5004725;28;20030;-84
2021/07/05 06:47:08;;;;;;;3.15;0.93;;;;;;;;;;5001925;28;20026;-84
2021/07/05 06:49:34;;;;;;;2.08;0.90;;;;;;;;;;4984636;28;20086;-83
2021/07/05 06:52:00;;;;;;;1.35;0.68;;;;;;;;;;4997542;28;20085;-84
2021/07/05 06:54:26;;;;;;;2.63;0.80;;;;;;;;;;4998327;28;20046;-83
2021/07/05 06:56:52;;;;;;;2.90;0.70;;;;;;;;;;4982675;28;20257;-85
2021/07/05 06:59:18;;;;;;;3.58;0.73;;;;;;;;;;4997601;28;20144;-84
2021/07/05 07:01:45;;;;;;;5.70;1.10;;;;;;;;;;4982617;28;20421;-84
2021/07/05 07:04:11;;;;;;;10.80;1.40;;;;;;;;;;4983466;28;20365;-84
2021/07/05 07:06:37;;;;;;;5.45;1.40;;;;;;;;;;4997318;28;20022;-84
2021/07/05 07:09:04;;;;;;;2.28;0.98;;;;;;;;;;4983170;28;20102;-84
2021/07/05 07:11:30;;;;;;;0.73;0.70;;;;;;;;;;4985609;28;20030;-83
2021/07/05 07:13:56;;;;;;;2.20;1.00;;;;;;;;;;5015877;28;20030;-85
2021/07/05 07:16:24;;;;;;;1.00;0.90;;;;;;;;;;5000676;28;20058;-85
2021/07/05 07:21:35;;;;;;;0.57;0.57;;;;;;;;;;5005296;28;20070;-84
2021/07/05 07:24:01;;;;;;;0.82;0.80;;;;;;;;;;5003357;28;20066;-82
2021/07/05 07:26:27;;;;;;;0.90;0.73;;;;;;;;;;5003557;28;20023;-84
2021/07/05 07:28:54;;;;;;;1.23;0.60;;;;;;;;;;5002277;28;20033;-82
2021/07/05 07:31:21;;;;;;;0.73;0.60;;;;;;;;;;5003475;28;20019;-84
2021/07/05 07:33:47;;;;;;;1.23;0.60;;;;;;;;;;5003841;28;20486;-86
2021/07/05 07:36:13;;;;;;;1.35;0.63;;;;;;;;;;5003803;28;20026;-83
2021/07/05 07:38:43;;;;;;;1.70;0.50;;;;;;;;;;5001279;28;20062;-84
2021/07/05 07:41:10;;;;;;;0.60;0.60;;;;;;;;;;5003247;28;20067;-85
2021/07/05 07:43:36;;;;;;;1.50;0.40;;;;;;;;;;5004934;28;20030;-85
2021/07/05 07:46:02;;;;;;;0.88;0.55;;;;;;;;;;5006334;28;20351;-85
2021/07/05 07:48:28;;;;;;;3.30;0.60;;;;;;;;;;5007306;28;20023;-85
2021/07/05 07:50:54;;;;;;;0.90;0.77;;;;;;;;;;5007900;28;20069;-83
2021/07/05 07:53:20;;;;;;;1.45;0.70;;;;;;;;;;5005952;28;20463;-83
2021/07/05 07:55:46;;;;;;;5.30;1.45;;;;;;;;;;5011531;28;20034;-85
2021/07/05 07:58:12;;;;;;;0.95;0.88;;;;;;;;;;5008489;28;20058;-85
2021/07/05 08:00:38;;;;;;;0.80;0.80;;;;;;;;;;5006783;28;20033;-83
2021/07/05 08:03:04;;;;;;;2.65;0.60;;;;;;;;;;5025404;28;20041;-85
2021/07/05 08:05:30;;;;;;;0.70;0.70;;;;;;;;;;5027982;28;20114;-85
2021/07/05 08:07:57;;;;;;;0.50;0.50;;;;;;;;;;5028527;28;20026;-84
2021/07/05 08:10:23;;;;;;;1.40;0.55;;;;;;;;;;5021920;28;20102;-81
2021/07/05 08:12:49;;;;;;;1.75;0.70;;;;;;;;;;5007000;28;20101;-81
2021/07/05 08:15:16;;;;;;;4.15;0.70;;;;;;;;;;5022769;28;20038;-83
2021/07/05 08:17:42;;;;;;;7.15;0.85;;;;;;;;;;5003716;28;20022;-83
2021/07/05 08:20:09;;;;;;;3.80;0.50;;;;;;;;;;5008409;28;20022;-82
2021/07/05 08:22:35;;;;;;;3.42;0.80;;;;;;;;;;5015187;28;20054;-82
2021/07/05 08:25:02;;;;;;;2.70;0.73;;;;;;;;;;5012784;28;20034;-84
2021/07/05 08:27:28;;;;;;;2.65;0.80;;;;;;;;;;5010790;28;20027;-84
2021/07/05 08:29:56;;;;;;;2.13;1.25;;;;;;;;;;5013122;28;20061;-84
2021/07/05 08:32:22;;;;;;;3.08;0.80;;;;;;;;;;5011061;28;20022;-84
2021/07/05 08:34:48;;;;;;;2.08;0.63;;;;;;;;;;5015394;28;20065;-84
2021/07/05 08:37:14;;;;;;;1.65;0.93;;;;;;;;;;5007984;28;20034;-83
2021/07/05 08:39:40;;;;;;;2.90;0.90;;;;;;;;;;5007139;28;20041;-84
2021/07/05 08:42:07;;;;;;;1.95;0.60;;;;;;;;;;5007977;28;20065;-86
2021/07/05 08:44:33;;;;;;;1.65;0.70;;;;;;;;;;5020238;28;20088;-84
2021/07/05 08:46:59;;;;;;;1.67;0.77;;;;;;;;;;5020024;28;20472;-83
2021/07/05 08:49:25;;;;;;;1.48;0.73;;;;;;;;;;5019414;28;20038;-81
2021/07/05 08:51:55;;;;;;;2.20;0.80;;;;;;;;;;5001780;28;20034;-86
2021/07/05 08:54:21;;;;;;;1.73;0.80;;;;;;;;;;5000737;28;20030;-85
2021/07/05 08:56:48;;;;;;;0.80;0.70;;;;;;;;;;5002257;28;20039;-83
2021/07/05 08:59:16;;;;;;;0.70;0.70;;;;;;;;;;5003026;28;20033;-83
2021/07/05 09:01:42;;;;;;;0.68;0.68;;;;;;;;;;5002574;28;20032;-83
2021/07/05 09:04:08;;;;;;;0.40;0.40;;;;;;;;;;5020370;28;20061;-82
2021/07/05 09:06:35;;;;;;;0.70;0.60;;;;;;;;;;5021483;28;20363;-81
2021/07/05 09:09:04;;;;;;;1.13;0.70;;;;;;;;;;5022802;28;20132;-81
2021/07/05 09:11:56;;;;;;;0.70;0.70;;;;;;;;;;5021739;28;20026;-82
2021/07/05 09:14:24;;;;;;;2.22;1.10;;;;;;;;;;4999509;28;20117;-82
2021/07/05 09:16:51;;;;;;;0.63;0.60;;;;;;;;;;5002718;28;20529;-82
2021/07/05 09:19:21;;;;;;;0.85;0.63;;;;;;;;;;5002890;28;20030;-82
2021/07/05 09:21:52;;;;;;;0.57;0.57;;;;;;;;;;5003647;28;20070;-83
2021/07/05 09:24:33;;;;;;;1.35;0.75;;;;;;;;;;5003524;28;20096;-82
2021/07/05 09:27:08;;;;;;;3.00;0.70;;;;;;;;;;5019577;28;20086;-82
2021/07/05 09:29:35;;;;;;;3.10;0.70;;;;;;;;;;5005564;28;20026;-83
2021/07/05 09:32:03;;;;;;;0.98;0.88;;;;;;;;;;5025412;28;20085;-82
2021/07/05 09:34:32;;;;;;;1.08;0.98;;;;;;;;;;5027162;28;20447;-82
2021/07/05 09:37:21;;;;;;;0.77;0.77;;;;;;;;;;5001999;28;20042;-82
2021/07/05 09:40:03;;;;;;;1.42;0.80;;;;;;;;;;5003431;28;20098;-83
2021/07/05 09:42:30;;;;;;;2.10;0.80;;;;;;;;;;5004336;28;20061;-82
2021/07/05 09:44:56;;;;;;;1.02;0.77;;;;;;;;;;5019227;28;20038;-82
2021/07/05 09:47:26;;;;;;;0.50;0.50;;;;;;;;;;5003866;28;20027;-83
2021/07/05 09:49:53;;;;;;;1.27;0.85;;;;;;;;;;5002835;28;20023;-84
2021/07/05 09:52:24;;;;;;;0.50;0.50;;;;;;;;;;5003813;28;20033;-83
2021/07/05 09:54:54;;;;;;;0.75;0.70;;;;;;;;;;5018697;28;20034;-84
2021/07/05 09:57:29;;;;;;;0.60;0.60;;;;;;;;;;5005940;28;20037;-84
2021/07/05 09:59:57;;;;;;;1.60;0.98;;;;;;;;;;5005212;28;20425;-83
2021/07/05 10:02:23;;;;;;;1.02;0.93;;;;;;;;;;5016733;28;20029;-82
2021/07/05 10:04:49;;;;;;;0.77;0.77;;;;;;;;;;5023748;28;20125;-82
2021/07/05 10:07:16;;;;;;;0.85;0.60;;;;;;;;;;5016265;28;20082;-82
2021/07/05 10:09:42;;;;;;;0.70;0.70;;;;;;;;;;5032311;28;20037;-82
2021/07/05 10:12:23;;;;;;;2.05;0.63;;;;;;;;;;5010158;28;20074;-82
2021/07/05 10:14:54;;;;;;;0.70;0.70;;;;;;;;;;5006218;28;20034;-83
2021/07/05 10:17:20;;;;;;;0.70;0.70;;;;;;;;;;5010275;28;20014;-82
2021/07/05 10:19:46;;;;;;;0.70;0.70;;;;;;;;;;5031735;28;20050;-81
2021/07/05 10:22:16;;;;;;;0.50;0.50;;;;;;;;;;5025429;28;20030;-82
2021/07/05 10:24:42;;;;;;;0.80;0.80;;;;;;;;;;5008205;28;20042;-82
2021/07/05 10:27:09;;;;;;;1.50;0.80;;;;;;;;;;5019716;28;20369;-83
2021/07/05 10:29:37;;;;;;;1.20;1.00;;;;;;;;;;5002920;28;20097;-82
2021/07/05 10:32:03;;;;;;;0.77;0.77;;;;;;;;;;5009392;28;20072;-83
2021/07/05 10:34:29;;;;;;;1.40;0.95;;;;;;;;;;5014963;28;20030;-84
2021/07/05 10:36:56;;;;;;;0.80;0.80;;;;;;;;;;5015374;28;20034;-84
2021/07/05 10:39:22;;;;;;;0.70;0.70;;;;;;;;;;5003604;28;20076;-82
2021/07/05 10:41:49;;;;;;;3.28;0.80;;;;;;;;;;5004237;28;20089;-82
2021/07/05 10:44:20;;;;;;;0.75;0.75;;;;;;;;;;5004566;28;20085;-83
2021/07/05 10:46:49;;;;;;;0.80;0.80;;;;;;;;;;5001608;28;20090;-81
2021/07/05 10:49:30;;;;;;;0.85;0.60;;;;;;;;;;5003344;28;20019;-83
2021/07/05 10:51:58;;;;;;;1.15;0.57;;;;;;;;;;5005005;28;20081;-82
2021/07/05 10:54:43;;;;;;;0.55;0.55;;;;;;;;;;5002066;28;20042;-83
2021/07/05 10:57:09;;;;;;;0.80;0.80;;;;;;;;;;5017863;28;20023;-84
2021/07/05 10:59:37;;;;;;;0.60;0.60;;;;;;;;;;5001801;28;20037;-84
2021/07/05 11:02:23;;;;;;;0.85;0.80;;;;;;;;;;5009521;28;20102;-84
2021/07/05 11:04:50;;;;;;;0.75;0.75;;;;;;;;;;5005156;28;20026;-83
2021/07/05 11:07:16;;;;;;;0.65;0.65;;;;;;;;;;5017858;28;20019;-84
2021/07/05 11:10:02;;;;;;;0.47;0.47;;;;;;;;;;5006193;28;20022;-84
2021/07/05 11:12:34;;;;;;;0.50;0.50;;;;;;;;;;5005415;28;20033;-83
2021/07/05 11:15:00;;;;;;;2.17;0.80;;;;;;;;;;5007579;28;20027;-83
2021/07/05 11:17:27;;;;;;;1.05;0.80;;;;;;;;;;5008147;28;20041;-83
2021/07/05 11:20:13;;;;;;;1.33;0.80;;;;;;;;;;5006215;28;20073;-83
2021/07/05 11:22:39;;;;;;;0.77;0.70;;;;;;;;;;5008478;28;20022;-82
2021/07/05 11:25:17;;;;;;;1.42;0.60;;;;;;;;;;5007745;28;20054;-82
2021/07/05 11:27:47;;;;;;;1.45;0.52;;;;;;;;;;5008200;28;20041;-83
2021/07/05 11:30:31;;;;;;;1.23;1.02;;;;;;;;;;5019666;28;20025;-85
2021/07/05 11:33:00;;;;;;;1.45;0.80;;;;;;;;;;5011762;28;20116;-83
2021/07/05 11:35:30;;;;;;;1.35;0.93;;;;;;;;;;5016502;28;20041;-83
2021/07/05 11:38:00;;;;;;;0.70;0.70;;;;;;;;;;5010018;28;20054;-83
2021/07/05 11:40:38;;;;;;;1.95;0.75;;;;;;;;;;5009395;28;20034;-83
2021/07/05 11:43:04;;;;;;;0.80;0.52;;;;;;;;;;5027450;28;20116;-84
2021/07/05 11:45:50;;;;;;;2.28;1.25;;;;;;;;;;5014243;28;20037;-84
2021/07/05 11:48:35;;;;;;;2.00;1.42;;;;;;;;;;5013122;28;20026;-84
2021/07/05 11:51:01;;;;;;;3.80;0.77;;;;;;;;;;5009813;28;20027;-83
2021/07/05 11:53:27;;;;;;;0.85;0.75;;;;;;;;;;5025106;28;20136;-82
2021/07/05 11:55:53;;;;;;;0.60;0.60;;;;;;;;;;5026286;28;20126;-83
2021/07/05 11:58:19;;;;;;;2.95;1.00;;;;;;;;;;5027836;28;20027;-82
2021/07/05 12:00:45;;;;;;;2.25;1.00;;;;;;;;;;5013535;28;20041;-82
2021/07/05 12:03:12;;;;;;;1.50;1.10;;;;;;;;;;5028458;28;20030;-82
2021/07/05 12:05:41;;;;;;;0.80;0.80;;;;;;;;;;5028997;28;20066;-83
2021/07/05 12:08:08;;;;;;;0.75;0.75;;;;;;;;;;5029447;28;20041;-82
2021/07/05 12:10:36;;;;;;;0.95;0.70;;;;;;;;;;5027781;28;20037;-82
2021/07/05 12:13:21;;;;;;;0.68;0.68;;;;;;;;;;5028331;28;20042;-82
2021/07/05 12:15:54;;;;;;;3.20;0.85;;;;;;;;;;5013918;28;20026;-82
2021/07/05 12:18:20;;;;;;;0.43;0.43;;;;;;;;;;5010753;28;20042;-83
2021/07/05 12:20:57;;;;;;;0.98;0.70;;;;;;;;;;5013693;28;20053;-82
2021/07/05 12:23:23;;;;;;;1.00;0.55;;;;;;;;;;4997634;28;20058;-83
2021/07/05 12:25:49;;;;;;;0.68;0.60;;;;;;;;;;4988782;28;20023;-83
2021/07/05 12:28:16;;;;;;;1.25;0.73;;;;;;;;;;5000331;28;20572;-83
2021/07/05 12:30:47;;;;;;;0.52;0.52;;;;;;;;;;5001669;28;20082;-83
2021/07/05 12:33:13;;;;;;;0.87;0.70;;;;;;;;;;5016938;28;20105;-83
2021/07/05 12:35:39;;;;;;;0.75;0.75;;;;;;;;;;5023906;28;20036;-83
2021/07/05 12:38:17;;;;;;;1.92;0.70;;;;;;;;;;5006455;28;20022;-83
2021/07/05 12:40:43;;;;;;;1.33;0.80;;;;;;;;;;5009231;28;20387;-83
2021/07/05 12:43:11;;;;;;;0.77;0.77;;;;;;;;;;5013752;28;20038;-84
2021/07/05 12:45:43;;;;;;;1.02;0.70;;;;;;;;;;5011849;28;20098;-84
2021/07/05 12:48:15;;;;;;;2.75;0.70;;;;;;;;;;5025069;28;20508;-84
2021/07/05 12:50:42;;;;;;;0.50;0.50;;;;;;;;;;5013052;28;20033;-84
2021/07/05 12:53:19;;;;;;;1.67;0.80;;;;;;;;;;5005914;28;20022;-83
2021/07/05 12:55:54;;;;;;;0.95;0.65;;;;;;;;;;5006822;28;20042;-83
2021/07/05 12:58:39;;;;;;;1.27;0.52;;;;;;;;;;5005454;28;20030;-83
2021/07/05 13:01:16;;;;;;;0.70;0.70;;;;;;;;;;5013220;28;20064;-80
2021/07/05 13:04:00;;;;;;;0.63;0.63;;;;;;;;;;5024186;28;20050;-81
2021/07/05 13:06:31;;;;;;;1.63;0.93;;;;;;;;;;5006662;28;20486;-82
2021/07/05 13:09:00;;;;;;;0.82;0.80;;;;;;;;;;5004920;28;20027;-81
2021/07/05 13:11:34;;;;;;;1.05;0.93;;;;;;;;;;5002144;28;20029;-82
2021/07/05 13:14:02;;;;;;;1.23;0.98;;;;;;;;;;5013477;28;20034;-82
2021/07/05 13:16:28;;;;;;;0.60;0.60;;;;;;;;;;5025832;28;20030;-83
2021/07/05 13:18:55;;;;;;;0.60;0.60;;;;;;;;;;5020388;28;20041;-83
2021/07/05 13:21:33;;;;;;;1.33;0.60;;;;;;;;;;5015841;28;20023;-83
2021/07/05 13:24:15;;;;;;;0.80;0.80;;;;;;;;;;5011278;28;20034;-80
2021/07/05 13:26:41;;;;;;;2.03;1.10;;;;;;;;;;5011907;28;20065;-82
2021/07/05 13:29:15;;;;;;;3.08;0.77;;;;;;;;;;5014602;28;20053;-82
2021/07/05 13:31:41;;;;;;;0.70;0.70;;;;;;;;;;4999693;28;20072;-82
2021/07/05 13:34:28;;;;;;;1.50;0.70;;;;;;;;;;5006026;28;20034;-83
2021/07/05 13:36:54;;;;;;;1.08;1.05;;;;;;;;;;5002484;28;20424;-83
2021/07/05 13:39:20;;;;;;;0.98;0.50;;;;;;;;;;5002286;28;20078;-83
2021/07/05 13:41:46;;;;;;;0.85;0.80;;;;;;;;;;5000973;28;20026;-83
2021/07/05 13:44:12;;;;;;;1.10;0.77;;;;;;;;;;5000609;28;20062;-83
2021/07/05 13:46:38;;;;;;;1.88;0.68;;;;;;;;;;5001766;28;20538;-82
2021/07/05 13:49:14;;;;;;;0.73;0.73;;;;;;;;;;5002215;28;20022;-83
2021/07/05 13:51:40;;;;;;;0.82;0.80;;;;;;;;;;5001184;28;20037;-81
2021/07/05 13:54:06;;;;;;;1.23;0.73;;;;;;;;;;5003948;28;20037;-83
2021/07/05 13:56:34;;;;;;;0.70;0.70;;;;;;;;;;5017716;28;20121;-82
2021/07/05 13:59:00;;;;;;;1.00;0.95;;;;;;;;;;5003404;28;20019;-82
2021/07/05 14:01:30;;;;;;;0.80;0.80;;;;;;;;;;5004561;28;20022;-82
2021/07/05 14:03:57;;;;;;;4.70;0.85;;;;;;;;;;5018269;28;20495;-82
2021/07/05 14:06:23;;;;;;;14.77;1.08;;;;;;;;;;5018624;28;20034;-83
2021/07/05 14:08:51;;;;;;;23.55;2.42;;;;;;;;;;5002205;28;20078;-82
2021/07/05 14:11:19;;;;;;;11.40;1.20;;;;;;;;;;5018274;28;20027;-81
2021/07/05 14:13:48;;;;;;;0.77;0.70;;;;;;;;;;5002569;28;20499;-82
2021/07/05 14:16:15;;;;;;;1.35;1.08;;;;;;;;;;5002434;28;20041;-82
2021/07/05 14:18:41;;;;;;;3.42;0.90;;;;;;;;;;5000965;28;20050;-82
2021/07/05 14:21:19;;;;;;;1.20;1.00;;;;;;;;;;5001836;28;20034;-81
2021/07/05 14:23:45;;;;;;;5.63;1.30;;;;;;;;;;5001621;28;20088;-81
2021/07/05 14:26:15;;;;;;;2.85;0.60;;;;;;;;;;5002134;28;20027;-83
2021/07/05 14:28:41;;;;;;;1.85;1.20;;;;;;;;;;5001086;28;20101;-82
2021/07/05 14:31:07;;;;;;;8.10;1.10;;;;;;;;;;5002952;28;20022;-82
2021/07/05 14:33:33;;;;;;;10.40;1.80;;;;;;;;;;5015374;28;20084;-81
2021/07/05 14:35:59;;;;;;;2.30;1.02;;;;;;;;;;5022220;28;20018;-82
2021/07/05 14:38:29;;;;;;;2.15;0.95;;;;;;;;;;5020843;28;20090;-82
2021/07/05 14:40:56;;;;;;;2.03;0.70;;;;;;;;;;5020369;28;20034;-83
2021/07/05 14:43:22;;;;;;;4.63;0.98;;;;;;;;;;5017215;28;20034;-82
2021/07/05 14:45:49;;;;;;;3.17;0.77;;;;;;;;;;4999893;28;20102;-82
2021/07/05 14:48:21;;;;;;;1.40;0.80;;;;;;;;;;5004254;28;20434;-82
2021/07/05 14:50:47;;;;;;;1.90;0.47;;;;;;;;;;5007938;28;20015;-83